Time;durP1;ratioP1;P1;durP2;ratioP2;P2;SDS_P1;SDS_P2;PMS_P1;PMS_P2;Temp;Humidity;BMP_temperature;BMP_pressure;BME280_temperature;BME280_humidity;BME280_pressure;Samples;Min_cycle;Max_cycle;Signal;HPM_P1;HPM_P2
2023/03/25 00:02:20;;;;;;;1.85;1.75;;;9.10;99.90;;;;;;5035313;28;20612;-74
2023/03/25 00:04:53;;;;;;;1.55;1.42;;;9.10;99.90;;;;;;5035892;28;20223;-74
2023/03/25 00:07:21;;;;;;;1.30;1.30;;;9.00;99.90;;;;;;5035357;28;20270;-74
2023/03/25 00:09:47;;;;;;;2.00;1.10;;;9.00;99.90;;;;;;5030201;28;20165;-74
2023/03/25 00:12:14;;;;;;;1.17;1.15;;;9.00;99.90;;;;;;5035085;28;20307;-74
2023/03/25 00:14:41;;;;;;;1.55;1.25;;;8.90;99.90;;;;;;5032455;28;20189;-73
2023/03/25 00:17:07;;;;;;;1.50;1.40;;;8.90;99.90;;;;;;5036350;28;20180;-74
2023/03/25 00:19:34;;;;;;;1.45;1.35;;;8.90;99.90;;;;;;5030883;28;20196;-74
2023/03/25 00:22:00;;;;;;;1.55;1.50;;;8.90;99.90;;;;;;5034174;28;20196;-74
2023/03/25 00:24:26;;;;;;;1.65;1.02;;;8.90;99.90;;;;;;5036088;28;20212;-74
2023/03/25 00:26:53;;;;;;;2.47;1.77;;;9.00;99.90;;;;;;5022195;28;20188;-74
2023/03/25 00:29:19;;;;;;;1.30;1.20;;;8.90;99.90;;;;;;5027869;28;20172;-74
2023/03/25 00:31:45;;;;;;;1.35;1.10;;;8.80;99.90;;;;;;5043561;28;20203;-74
2023/03/25 00:34:13;;;;;;;1.85;1.75;;;8.80;99.90;;;;;;5046645;28;20188;-74
2023/03/25 00:36:40;;;;;;;1.23;1.13;;;8.80;99.90;;;;;;5032035;28;20189;-74
2023/03/25 00:39:07;;;;;;;3.40;1.90;;;8.90;99.90;;;;;;5046107;28;20172;-74
2023/03/25 00:41:35;;;;;;;1.20;1.20;;;9.00;99.90;;;;;;5043084;28;20288;-73
2023/03/25 00:44:02;;;;;;;1.95;1.10;;;9.10;99.90;;;;;;5046926;28;20177;-74
2023/03/25 00:46:30;;;;;;;1.70;1.48;;;9.20;99.90;;;;;;5035196;28;20185;-74
2023/03/25 00:48:57;;;;;;;1.30;1.30;;;9.30;99.90;;;;;;5042507;28;20164;-74
2023/03/25 00:51:24;;;;;;;1.65;1.45;;;9.30;99.90;;;;;;5043404;28;20582;-74
2023/03/25 00:53:52;;;;;;;1.25;1.17;;;9.30;99.90;;;;;;5029207;28;20828;-74
2023/03/25 00:56:19;;;;;;;1.60;1.50;;;9.30;99.90;;;;;;5044398;28;20234;-74
2023/03/25 00:58:45;;;;;;;1.58;1.25;;;9.40;99.90;;;;;;5047366;28;20669;-74
2023/03/25 01:01:14;;;;;;;2.75;1.08;;;9.40;99.90;;;;;;5048715;28;20215;-75
2023/03/25 01:03:42;;;;;;;1.00;1.00;;;9.50;99.90;;;;;;5036317;28;20551;-74
2023/03/25 01:06:16;;;;;;;1.10;1.10;;;9.60;99.90;;;;;;5041300;28;20210;-74
2023/03/25 01:08:43;;;;;;;1.30;1.30;;;9.50;99.90;;;;;;5037805;28;20191;-74
2023/03/25 01:11:21;;;;;;;1.25;1.15;;;9.50;99.90;;;;;;5045026;28;20207;-77
2023/03/25 01:13:47;;;;;;;1.55;1.48;;;9.40;99.90;;;;;;5040729;28;20283;-74
2023/03/25 01:16:12;;;;;;;2.00;1.83;;;9.30;99.90;;;;;;5037941;28;20283;-74
2023/03/25 01:18:38;;;;;;;1.67;1.10;;;9.20;99.90;;;;;;5041371;28;20192;-74
2023/03/25 01:21:05;;;;;;;1.92;1.80;;;9.10;99.90;;;;;;5035548;28;20204;-74
2023/03/25 01:23:31;;;;;;;1.60;1.50;;;9.00;99.90;;;;;;5037752;28;20263;-74
2023/03/25 01:25:57;;;;;;;2.15;2.03;;;8.80;99.90;;;;;;5033623;28;20328;-75
2023/03/25 01:28:22;;;;;;;2.10;1.90;;;8.80;99.90;;;;;;5037106;28;20181;-74
2023/03/25 01:30:48;;;;;;;3.15;1.77;;;8.70;99.90;;;;;;5036064;28;20235;-74
2023/03/25 01:33:14;;;;;;;3.05;1.60;;;8.60;99.90;;;;;;5023526;28;20719;-74
2023/03/25 01:35:40;;;;;;;2.15;1.63;;;8.60;99.90;;;;;;5035115;28;20184;-75
2023/03/25 01:38:05;;;;;;;4.00;2.00;;;8.50;99.90;;;;;;5030628;28;20183;-74
2023/03/25 01:40:31;;;;;;;2.38;2.20;;;8.50;99.90;;;;;;5045326;28;21156;-74
2023/03/25 01:42:57;;;;;;;2.90;1.67;;;8.50;99.90;;;;;;5033434;28;20205;-74
2023/03/25 01:45:28;;;;;;;2.20;1.85;;;8.50;99.90;;;;;;5043059;28;20586;-74
2023/03/25 01:48:21;;;;;;;2.05;1.95;;;8.50;99.90;;;;;;5039503;28;20188;-74
2023/03/25 01:50:51;;;;;;;2.58;2.08;;;8.40;99.90;;;;;;5039738;28;20192;-73
2023/03/25 01:53:17;;;;;;;3.72;1.85;;;8.40;99.90;;;;;;5041785;28;20191;-73
2023/03/25 01:55:44;;;;;;;2.85;2.58;;;8.30;99.90;;;;;;5036730;28;20631;-73
2023/03/25 01:58:14;;;;;;;1.83;1.73;;;8.30;99.90;;;;;;5042248;28;20186;-73
2023/03/25 02:00:42;;;;;;;3.03;2.72;;;8.20;99.90;;;;;;5041463;28;20211;-74
2023/03/25 02:03:10;;;;;;;2.95;2.65;;;8.20;99.90;;;;;;5030888;28;20444;-74
2023/03/25 02:06:04;;;;;;;4.05;1.85;;;8.10;99.90;;;;;;5042112;28;20172;-74
2023/03/25 02:08:36;;;;;;;2.03;1.92;;;8.10;99.90;;;;;;5035805;28;20219;-74
2023/03/25 02:11:03;;;;;;;6.43;1.77;;;8.00;99.90;;;;;;5036992;28;20215;-74
2023/03/25 02:13:29;;;;;;;1.35;1.30;;;8.10;99.90;;;;;;5041417;28;20679;-74
2023/03/25 02:16:06;;;;;;;1.77;1.67;;;8.10;99.90;;;;;;5032525;28;20316;-75
2023/03/25 02:18:44;;;;;;;1.58;1.50;;;8.10;99.90;;;;;;5036072;28;20265;-75
2023/03/25 02:21:48;;;;;;;5.30;1.85;;;8.10;99.90;;;;;;5044294;28;20302;-75
2023/03/25 02:24:36;;;;;;;2.80;2.10;;;8.10;99.90;;;;;;5042726;28;20168;-74
2023/03/25 02:27:14;;;;;;;2.03;1.88;;;8.10;99.90;;;;;;5040539;28;20184;-76
2023/03/25 02:30:19;;;;;;;1.98;1.80;;;8.10;99.90;;;;;;5038281;28;20203;-75
2023/03/25 02:32:54;;;;;;;2.40;2.20;;;8.00;99.90;;;;;;5030655;28;20260;-73
2023/03/25 02:35:36;;;;;;;6.00;2.00;;;8.00;99.90;;;;;;5037703;28;20187;-73
2023/03/25 02:38:16;;;;;;;2.63;2.42;;;8.00;99.90;;;;;;5037721;28;20219;-73
2023/03/25 02:40:55;;;;;;;2.20;2.10;;;7.90;99.90;;;;;;5043622;28;20249;-73
2023/03/25 02:44:00;;;;;;;4.00;2.40;;;7.90;99.90;;;;;;5035194;28;20203;-74
2023/03/25 02:46:27;;;;;;;3.25;2.88;;;8.00;99.90;;;;;;5043318;28;20253;-74
2023/03/25 02:49:01;;;;;;;2.80;2.05;;;8.00;99.90;;;;;;5043664;28;20183;-74
2023/03/25 02:51:30;;;;;;;3.15;2.38;;;8.00;99.90;;;;;;5039160;28;20211;-74
2023/03/25 02:54:02;;;;;;;2.45;2.17;;;8.10;99.90;;;;;;5022811;28;20180;-73
2023/03/25 02:56:31;;;;;;;2.85;2.45;;;8.10;99.90;;;;;;5041391;28;20275;-73
2023/03/25 02:58:58;;;;;;;2.45;2.33;;;8.10;99.90;;;;;;5042094;28;20713;-74
2023/03/25 03:01:25;;;;;;;2.85;2.65;;;8.20;99.90;;;;;;5049543;28;20226;-74
2023/03/25 03:03:55;;;;;;;3.33;2.25;;;8.20;99.90;;;;;;5034206;28;21558;-74
2023/03/25 03:06:23;;;;;;;2.97;2.08;;;8.20;99.90;;;;;;5040990;28;20183;-74
2023/03/25 03:08:48;;;;;;;3.05;2.10;;;8.20;99.90;;;;;;5038204;28;20535;-74
2023/03/25 03:11:41;;;;;;;1.98;1.35;;;8.30;99.90;;;;;;5032515;28;20211;-74
2023/03/25 03:14:47;;;;;;;2.35;2.08;;;8.30;99.90;;;;;;5026449;28;20208;-74
2023/03/25 03:17:44;;;;;;;2.40;1.80;;;8.30;99.90;;;;;;5021694;28;20206;-74
2023/03/25 03:20:25;;;;;;;1.15;1.05;;;8.30;99.90;;;;;;5042388;28;20617;-73
2023/03/25 03:23:05;;;;;;;3.13;1.50;;;8.30;99.90;;;;;;5039954;28;20200;-75
2023/03/25 03:25:47;;;;;;;4.13;1.75;;;8.30;99.90;;;;;;5021187;28;20177;-75
2023/03/25 03:28:41;;;;;;;1.52;1.40;;;8.40;99.90;;;;;;5046143;28;20167;-74
2023/03/25 03:31:23;;;;;;;1.75;1.67;;;8.30;99.90;;;;;;5037925;28;20682;-74
2023/03/25 03:34:05;;;;;;;2.22;1.48;;;8.40;99.90;;;;;;5050214;28;20183;-74
2023/03/25 03:36:40;;;;;;;2.92;1.40;;;8.30;99.90;;;;;;5038026;28;20180;-75
2023/03/25 03:39:21;;;;;;;1.90;1.58;;;8.30;99.90;;;;;;5040451;28;20183;-75
2023/03/25 03:41:52;;;;;;;1.70;1.60;;;8.30;99.90;;;;;;5037573;28;20244;-74
2023/03/25 03:44:23;;;;;;;2.38;1.20;;;8.40;99.90;;;;;;5034534;28;20589;-75
2023/03/25 03:47:09;;;;;;;1.40;1.30;;;8.40;99.90;;;;;;5021517;28;20235;-75
2023/03/25 03:49:38;;;;;;;1.20;1.20;;;8.40;99.90;;;;;;5041839;28;20167;-75
2023/03/25 03:52:09;;;;;;;1.38;1.23;;;8.40;99.90;;;;;;5042040;28;20208;-75
2023/03/25 03:54:45;;;;;;;1.10;1.00;;;8.40;99.90;;;;;;5041948;28;20168;-75
2023/03/25 03:57:15;;;;;;;1.25;1.00;;;8.40;99.90;;;;;;5033060;28;20208;-76
2023/03/25 04:00:05;;;;;;;1.27;1.00;;;8.40;99.90;;;;;;5027737;28;20180;-75
2023/03/25 04:03:00;;;;;;;1.38;0.95;;;8.40;99.90;;;;;;5015117;28;20204;-75
2023/03/25 04:05:29;;;;;;;1.60;1.33;;;8.40;99.90;;;;;;5028392;28;20195;-75
2023/03/25 04:08:10;;;;;;;0.90;0.90;;;8.30;99.90;;;;;;5046969;28;20176;-75
2023/03/25 04:10:45;;;;;;;1.23;1.23;;;8.30;99.90;;;;;;5042535;28;20172;-76
2023/03/25 04:13:14;;;;;;;1.02;1.02;;;8.10;99.90;;;;;;5048501;28;20198;-77
2023/03/25 04:15:41;;;;;;;1.00;1.00;;;8.00;99.90;;;;;;5038669;28;20191;-75
2023/03/25 04:18:07;;;;;;;4.00;1.27;;;7.90;99.90;;;;;;5047085;28;20184;-75
2023/03/25 04:20:35;;;;;;;1.17;1.17;;;7.80;99.90;;;;;;5038751;28;20206;-74
2023/03/25 04:23:03;;;;;;;1.17;1.10;;;7.80;99.90;;;;;;5032680;28;20219;-76
2023/03/25 04:25:31;;;;;;;3.17;1.42;;;7.70;99.90;;;;;;5043463;28;20179;-75
2023/03/25 04:27:57;;;;;;;1.60;1.50;;;7.80;99.90;;;;;;5042315;28;20172;-75
2023/03/25 04:30:25;;;;;;;1.55;1.55;;;7.80;99.90;;;;;;5038465;28;20176;-75
2023/03/25 04:32:51;;;;;;;1.42;1.33;;;7.60;99.90;;;;;;5038043;28;20206;-75
2023/03/25 04:35:18;;;;;;;3.20;1.75;;;7.60;99.90;;;;;;5042021;28;20605;-75
2023/03/25 04:37:47;;;;;;;1.20;1.20;;;7.60;99.90;;;;;;5037315;28;20181;-75
2023/03/25 04:40:17;;;;;;;2.08;1.63;;;7.50;99.90;;;;;;5031335;28;20180;-75
2023/03/25 04:42:45;;;;;;;1.80;1.70;;;7.50;99.90;;;;;;5041185;28;20393;-75
2023/03/25 04:45:15;;;;;;;1.73;1.63;;;7.50;99.90;;;;;;5042854;28;20183;-74
2023/03/25 04:47:43;;;;;;;3.08;1.85;;;7.40;99.90;;;;;;5036806;28;20219;-75
2023/03/25 04:50:30;;;;;;;1.60;1.50;;;7.40;99.90;;;;;;5041543;28;20191;-75
2023/03/25 04:52:57;;;;;;;2.88;2.28;;;7.50;99.90;;;;;;5032588;28;20738;-74
2023/03/25 04:55:24;;;;;;;2.53;2.13;;;7.60;99.90;;;;;;5047864;28;20192;-74
2023/03/25 04:57:52;;;;;;;2.25;1.73;;;7.60;99.90;;;;;;5036934;28;20172;-74
2023/03/25 05:00:21;;;;;;;2.70;1.60;;;7.70;99.90;;;;;;5042038;28;20223;-74
2023/03/25 05:02:48;;;;;;;1.52;1.42;;;7.80;99.90;;;;;;5039921;28;20291;-75
2023/03/25 05:05:19;;;;;;;1.85;1.75;;;7.80;99.90;;;;;;5041674;28;20191;-75
2023/03/25 05:07:48;;;;;;;1.48;1.42;;;7.90;99.90;;;;;;5042246;28;20187;-75
2023/03/25 05:10:14;;;;;;;2.10;1.70;;;8.00;99.90;;;;;;5041123;28;20182;-76
2023/03/25 05:12:40;;;;;;;1.65;1.55;;;8.00;99.90;;;;;;5043638;28;20293;-74
2023/03/25 05:15:07;;;;;;;1.80;1.67;;;8.00;99.90;;;;;;5046803;28;20270;-75
2023/03/25 05:17:33;;;;;;;1.60;1.50;;;8.10;99.90;;;;;;5045760;28;20215;-75
2023/03/25 05:19:58;;;;;;;1.50;1.40;;;8.10;99.90;;;;;;5025604;28;20227;-78
2023/03/25 05:22:24;;;;;;;1.27;1.27;;;8.20;99.90;;;;;;5044241;28;20212;-76
2023/03/25 05:24:52;;;;;;;1.60;1.50;;;8.30;99.90;;;;;;5037396;28;20181;-77
2023/03/25 05:27:19;;;;;;;1.58;1.58;;;8.40;99.90;;;;;;5044103;28;20274;-77
2023/03/25 05:29:45;;;;;;;2.00;1.52;;;8.40;99.90;;;;;;5039175;28;20176;-78
2023/03/25 05:32:16;;;;;;;2.00;1.38;;;8.30;99.90;;;;;;5039294;28;20239;-77
2023/03/25 05:34:45;;;;;;;1.67;1.50;;;8.30;99.90;;;;;;5041872;28;20187;-77
2023/03/25 05:37:12;;;;;;;0.80;0.80;;;8.40;99.90;;;;;;5038785;28;20271;-77
2023/03/25 05:39:37;;;;;;;2.28;1.30;;;8.40;99.90;;;;;;5036269;28;20173;-76
2023/03/25 05:42:03;;;;;;;0.98;0.98;;;8.40;99.90;;;;;;5049334;28;20577;-77
2023/03/25 05:44:29;;;;;;;1.88;1.20;;;8.50;99.90;;;;;;5044550;28;20176;-77
2023/03/25 05:46:54;;;;;;;1.75;1.10;;;8.60;99.90;;;;;;5043654;28;20187;-76
2023/03/25 05:49:20;;;;;;;0.57;0.57;;;8.60;99.90;;;;;;5041850;28;20180;-76
2023/03/25 05:51:48;;;;;;;2.83;1.10;;;8.60;99.90;;;;;;5034174;28;20291;-77
2023/03/25 05:54:14;;;;;;;1.08;1.00;;;8.80;99.90;;;;;;5045169;28;20620;-78
2023/03/25 05:56:41;;;;;;;0.93;0.82;;;8.90;99.90;;;;;;5043299;28;20445;-77
2023/03/25 05:59:07;;;;;;;0.63;0.63;;;9.00;99.90;;;;;;5036278;28;20679;-78
2023/03/25 06:01:36;;;;;;;2.47;1.27;;;9.10;99.90;;;;;;5042764;28;20302;-78
2023/03/25 06:04:02;;;;;;;0.93;0.93;;;9.20;99.90;;;;;;5030812;28;20184;-77
2023/03/25 06:06:28;;;;;;;0.70;0.70;;;9.20;99.90;;;;;;5042071;28;20176;-75
2023/03/25 06:08:54;;;;;;;0.80;0.80;;;9.10;99.90;;;;;;5032390;28;20203;-75
2023/03/25 06:11:20;;;;;;;1.15;0.60;;;9.00;99.90;;;;;;5040447;28;20228;-76
2023/03/25 06:13:49;;;;;;;0.63;0.63;;;9.00;99.90;;;;;;5041894;28;20601;-76
2023/03/25 06:16:18;;;;;;;1.30;1.05;;;9.00;99.90;;;;;;5036730;28;20193;-82
2023/03/25 06:18:49;;;;;;;0.57;0.57;;;9.00;99.90;;;;;;5037943;28;20268;-77
2023/03/25 06:21:16;;;;;;;0.55;0.55;;;9.10;99.90;;;;;;5030387;28;20218;-76
2023/03/25 06:23:41;;;;;;;0.50;0.50;;;9.40;99.90;;;;;;5046422;28;20176;-76
2023/03/25 06:26:07;;;;;;;1.13;0.57;;;9.40;99.90;;;;;;5036113;28;20173;-77
2023/03/25 06:28:33;;;;;;;0.57;0.57;;;9.40;99.90;;;;;;5036098;28;20168;-77
2023/03/25 06:31:02;;;;;;;1.05;0.82;;;9.30;99.90;;;;;;5030584;28;20617;-78
2023/03/25 06:33:27;;;;;;;1.00;1.00;;;9.30;99.90;;;;;;5038466;28;20189;-78
2023/03/25 06:35:53;;;;;;;0.85;0.70;;;9.30;99.90;;;;;;5043554;28;20180;-76
2023/03/25 06:38:22;;;;;;;0.88;0.88;;;9.40;99.90;;;;;;5020943;28;20283;-76
2023/03/25 06:40:48;;;;;;;0.85;0.70;;;9.40;99.90;;;;;;5019401;28;20204;-74
2023/03/25 06:43:14;;;;;;;0.60;0.60;;;9.40;99.90;;;;;;5038298;28;20189;-77
2023/03/25 06:45:41;;;;;;;0.80;0.55;;;9.30;99.90;;;;;;5042042;28;20168;-76
2023/03/25 06:48:07;;;;;;;1.25;0.65;;;9.30;99.90;;;;;;5031483;28;20180;-76
2023/03/25 06:50:32;;;;;;;0.75;0.75;;;9.30;99.90;;;;;;5036641;28;20177;-76
2023/03/25 06:52:58;;;;;;;0.88;0.70;;;9.40;99.90;;;;;;5017743;28;20207;-77
2023/03/25 06:55:24;;;;;;;0.77;0.70;;;9.50;99.90;;;;;;5034844;28;20176;-76
2023/03/25 06:57:53;;;;;;;1.08;1.05;;;9.60;99.90;;;;;;5035890;28;20260;-77
2023/03/25 07:00:22;;;;;;;1.42;0.45;;;9.70;99.90;;;;;;5024906;28;20176;-76
2023/03/25 07:02:47;;;;;;;0.45;0.45;;;9.80;99.90;;;;;;5037352;28;20211;-77
2023/03/25 07:05:13;;;;;;;0.73;0.47;;;9.80;99.90;;;;;;5040412;28;20184;-77
2023/03/25 07:07:39;;;;;;;0.68;0.52;;;9.80;99.90;;;;;;5033784;28;20214;-76
2023/03/25 07:10:06;;;;;;;0.80;0.73;;;9.70;99.90;;;;;;5044002;28;20179;-77
2023/03/25 07:12:33;;;;;;;0.35;0.35;;;9.60;99.90;;;;;;5033575;28;20204;-76
2023/03/25 07:14:59;;;;;;;0.75;0.60;;;9.60;99.90;;;;;;5040530;28;20192;-76
2023/03/25 07:17:25;;;;;;;1.75;0.93;;;9.70;99.90;;;;;;5038266;28;20248;-77
2023/03/25 07:19:51;;;;;;;0.63;0.52;;;9.60;99.90;;;;;;5043768;28;20245;-76
2023/03/25 07:22:17;;;;;;;0.60;0.47;;;9.60;99.90;;;;;;5035786;28;20274;-76
2023/03/25 07:24:42;;;;;;;3.20;0.73;;;9.60;99.90;;;;;;5028496;28;20181;-76
2023/03/25 07:27:12;;;;;;;1.20;0.60;;;9.70;99.90;;;;;;5026914;28;20188;-75
2023/03/25 07:29:38;;;;;;;0.63;0.43;;;9.80;99.90;;;;;;5023075;28;20181;-74
2023/03/25 07:32:04;;;;;;;0.93;0.50;;;9.70;99.90;;;;;;5035966;28;20275;-76
2023/03/25 07:34:30;;;;;;;0.40;0.40;;;9.80;99.90;;;;;;5021649;28;20664;-75
2023/03/25 07:36:55;;;;;;;0.80;0.40;;;9.80;99.90;;;;;;5023740;28;20181;-73
2023/03/25 07:39:23;;;;;;;0.77;0.47;;;9.70;99.90;;;;;;5031212;28;20180;-74
2023/03/25 07:41:52;;;;;;;0.40;0.40;;;9.70;99.90;;;;;;5039861;28;20208;-77
2023/03/25 07:44:20;;;;;;;0.50;0.50;;;9.80;99.90;;;;;;5035411;28;20179;-75
2023/03/25 07:46:46;;;;;;;0.70;0.70;;;9.90;99.90;;;;;;5035452;28;20181;-75
2023/03/25 07:49:13;;;;;;;0.60;0.60;;;10.20;99.90;;;;;;5045259;28;20181;-75
2023/03/25 07:51:38;;;;;;;0.43;0.43;;;10.60;99.90;;;;;;5027029;28;20678;-76
2023/03/25 07:54:04;;;;;;;1.20;0.32;;;10.90;99.90;;;;;;5041467;28;20266;-75
2023/03/25 07:56:29;;;;;;;1.25;0.75;;;11.10;99.90;;;;;;5034527;28;20184;-77
2023/03/25 07:58:55;;;;;;;0.32;0.32;;;11.40;99.90;;;;;;5037248;28;20181;-76
2023/03/25 08:01:21;;;;;;;1.27;0.73;;;11.70;99.90;;;;;;5049959;28;20208;-75
2023/03/25 08:03:46;;;;;;;1.00;0.55;;;11.90;99.90;;;;;;5039285;28;20256;-75
2023/03/25 08:06:12;;;;;;;0.52;0.52;;;12.10;99.90;;;;;;5037100;28;20202;-74
2023/03/25 08:08:38;;;;;;;2.17;0.73;;;12.30;99.90;;;;;;5032900;28;20548;-75
2023/03/25 08:11:04;;;;;;;2.03;0.80;;;12.20;99.90;;;;;;5039271;28;20204;-75
2023/03/25 08:13:30;;;;;;;1.23;0.63;;;12.10;99.90;;;;;;5034053;28;20223;-75
2023/03/25 08:15:55;;;;;;;3.28;0.70;;;11.80;99.90;;;;;;5030316;28;20180;-76
2023/03/25 08:18:21;;;;;;;1.20;0.40;;;11.80;99.90;;;;;;5027982;28;20203;-74
2023/03/25 08:20:50;;;;;;;1.40;0.88;;;11.80;99.90;;;;;;5025632;28;20262;-75
2023/03/25 08:23:18;;;;;;;1.23;0.88;;;11.70;99.90;;;;;;5029020;28;20522;-75
2023/03/25 08:25:48;;;;;;;1.77;0.68;;;11.80;99.90;;;;;;5032148;28;20713;-77
2023/03/25 08:28:21;;;;;;;1.73;1.00;;;11.80;99.90;;;;;;5033401;28;20302;-76
2023/03/25 08:30:53;;;;;;;0.93;0.93;;;12.10;99.90;;;;;;5037079;28;20591;-75
2023/03/25 08:33:20;;;;;;;1.55;0.80;;;12.00;99.90;;;;;;5022861;28;20211;-73
2023/03/25 08:35:46;;;;;;;1.85;0.80;;;12.00;99.90;;;;;;5023607;28;20271;-73
2023/03/25 08:38:12;;;;;;;1.30;0.88;;;11.80;99.90;;;;;;5027478;28;20429;-73
2023/03/25 08:40:38;;;;;;;0.43;0.43;;;11.90;99.90;;;;;;5020012;28;20559;-73
2023/03/25 08:43:05;;;;;;;1.40;0.80;;;12.10;99.90;;;;;;5023467;28;20177;-72
2023/03/25 08:45:31;;;;;;;1.42;0.82;;;12.20;99.90;;;;;;5024418;28;20675;-75
2023/03/25 08:47:57;;;;;;;2.00;1.20;;;12.10;99.90;;;;;;5025098;28;20181;-73
2023/03/25 08:50:23;;;;;;;1.45;0.93;;;12.10;99.90;;;;;;5024038;28;20607;-73
2023/03/25 08:52:52;;;;;;;1.25;0.80;;;12.20;99.90;;;;;;5026288;28;20223;-74
2023/03/25 08:55:18;;;;;;;0.90;0.90;;;12.40;99.90;;;;;;5020771;28;20188;-73
2023/03/25 08:57:43;;;;;;;2.25;1.10;;;12.40;99.90;;;;;;5017669;28;20181;-74
2023/03/25 09:00:13;;;;;;;0.88;0.47;;;12.30;99.90;;;;;;5018719;28;20192;-74
2023/03/25 09:02:40;;;;;;;4.13;1.30;;;12.70;99.90;;;;;;5021128;28;20617;-73
2023/03/25 09:05:07;;;;;;;1.00;0.68;;;13.80;99.90;;;;;;5019766;28;20176;-73
2023/03/25 09:07:33;;;;;;;1.52;0.90;;;14.50;99.90;;;;;;5028532;28;20181;-74
2023/03/25 09:09:58;;;;;;;2.33;0.75;;;15.60;99.90;;;;;;5022259;28;20263;-73
2023/03/25 09:12:24;;;;;;;1.08;0.95;;;16.70;96.90;;;;;;5038622;28;20555;-74
2023/03/25 09:14:50;;;;;;;2.42;0.98;;;16.80;93.90;;;;;;5042359;28;20189;-74
2023/03/25 09:17:15;;;;;;;3.00;0.98;;;17.70;91.80;;;;;;5023542;28;20192;-75
2023/03/25 09:19:41;;;;;;;2.97;0.98;;;18.40;87.20;;;;;;5031808;28;20196;-75
2023/03/25 09:22:07;;;;;;;0.75;0.75;;;19.10;85.90;;;;;;5041256;28;20218;-74
2023/03/25 09:24:32;;;;;;;2.92;1.00;;;19.60;80.70;;;;;;5038028;28;20188;-74
2023/03/25 09:27:00;;;;;;;0.60;0.57;;;18.90;79.10;;;;;;5033398;28;20173;-74
2023/03/25 09:29:26;;;;;;;1.45;0.70;;;17.70;86.50;;;;;;5032682;28;20260;-74
2023/03/25 09:31:51;;;;;;;4.05;0.70;;;17.10;86.70;;;;;;5030107;28;20234;-74
2023/03/25 09:34:17;;;;;;;0.90;0.82;;;17.80;85.00;;;;;;5036186;28;20180;-74
2023/03/25 09:36:44;;;;;;;0.85;0.50;;;18.80;82.50;;;;;;5032105;28;20188;-73
2023/03/25 09:39:10;;;;;;;1.27;0.80;;;19.80;78.10;;;;;;5034167;28;20168;-74
2023/03/25 09:41:53;;;;;;;0.73;0.73;;;20.10;75.50;;;;;;5034613;28;20238;-74
2023/03/25 09:44:57;;;;;;;1.40;0.32;;;20.80;74.20;;;;;;5023639;28;20234;-74
2023/03/25 09:47:24;;;;;;;0.47;0.47;;;21.60;69.50;;;;;;5023572;28;20681;-74
2023/03/25 09:49:56;;;;;;;1.52;0.65;;;21.30;68.50;;;;;;5022362;28;20183;-73
2023/03/25 09:52:27;;;;;;;0.90;0.90;;;21.60;68.60;;;;;;5033268;28;20210;-75
2023/03/25 09:54:59;;;;;;;0.73;0.73;;;20.90;68.30;;;;;;5047854;28;20172;-74
2023/03/25 09:57:32;;;;;;;1.38;0.82;;;19.80;69.50;;;;;;5035015;28;20261;-74
2023/03/25 10:00:00;;;;;;;0.43;0.30;;;18.40;72.60;;;;;;5023404;28;20612;-74
2023/03/25 10:02:58;;;;;;;0.95;0.57;;;17.80;73.80;;;;;;5020422;28;20490;-74
2023/03/25 10:06:01;;;;;;;2.17;1.00;;;17.40;74.20;;;;;;5018186;28;20195;-74
2023/03/25 10:08:48;;;;;;;2.63;0.80;;;17.30;72.50;;;;;;5016771;28;20238;-74
2023/03/25 10:11:31;;;;;;;1.95;0.70;;;17.40;72.10;;;;;;5034580;28;20212;-75
2023/03/25 10:14:26;;;;;;;1.42;0.98;;;19.10;69.10;;;;;;5016742;28;20282;-72
2023/03/25 10:17:15;;;;;;;0.90;0.60;;;19.90;63.80;;;;;;5026081;28;20227;-74
2023/03/25 10:20:29;;;;;;;2.08;1.10;;;19.00;65.90;;;;;;5016384;28;20212;-74
2023/03/25 10:23:00;;;;;;;2.05;0.43;;;18.10;68.40;;;;;;5018964;28;20227;-74
2023/03/25 10:25:31;;;;;;;1.02;0.52;;;17.70;70.20;;;;;;5031119;28;20258;-74
2023/03/25 10:27:59;;;;;;;1.77;0.82;;;17.70;69.60;;;;;;5031441;28;20181;-74
2023/03/25 10:30:31;;;;;;;3.55;0.75;;;17.90;69.90;;;;;;5024665;28;20271;-75
2023/03/25 10:33:00;;;;;;;0.63;0.63;;;18.90;66.40;;;;;;5031927;28;20254;-77
2023/03/25 10:35:32;;;;;;;3.28;1.10;;;18.80;66.90;;;;;;5046339;28;20671;-75
2023/03/25 10:38:11;;;;;;;0.90;0.40;;;17.70;69.40;;;;;;5037745;28;20177;-74
2023/03/25 10:40:43;;;;;;;0.68;0.68;;;16.70;73.20;;;;;;5027255;28;20223;-76
2023/03/25 10:43:32;;;;;;;1.10;0.68;;;17.00;74.70;;;;;;5035068;28;20275;-75
2023/03/25 10:46:12;;;;;;;0.90;0.50;;;17.80;70.80;;;;;;5020722;28;20645;-75
2023/03/25 10:48:38;;;;;;;1.65;0.40;;;17.60;70.30;;;;;;5027259;28;20176;-76
2023/03/25 10:51:12;;;;;;;0.80;0.52;;;16.90;72.60;;;;;;5031125;28;20246;-75
2023/03/25 10:53:40;;;;;;;0.65;0.35;;;17.70;72.40;;;;;;5042170;28;20184;-75
2023/03/25 10:56:30;;;;;;;0.35;0.35;;;19.00;69.40;;;;;;5039564;28;20180;-75
2023/03/25 10:58:57;;;;;;;0.38;0.38;;;20.50;67.50;;;;;;5031189;28;20545;-75
2023/03/25 11:01:41;;;;;;;0.65;0.45;;;22.00;63.20;;;;;;5032097;28;20215;-75
2023/03/25 11:04:10;;;;;;;0.52;0.38;;;23.10;59.70;;;;;;5029448;28;20671;-76
2023/03/25 11:06:39;;;;;;;1.55;0.28;;;23.70;58.60;;;;;;5034194;28;20551;-75
2023/03/25 11:09:14;;;;;;;0.35;0.32;;;23.20;57.80;;;;;;5025354;28;20189;-79
2023/03/25 11:11:41;;;;;;;0.57;0.57;;;22.20;59.40;;;;;;5028064;28;20675;-75
2023/03/25 11:14:07;;;;;;;0.30;0.30;;;21.20;60.80;;;;;;5019024;28;20188;-77
2023/03/25 11:17:01;;;;;;;1.23;0.50;;;20.50;61.50;;;;;;5028802;28;20191;-74
2023/03/25 11:19:40;;;;;;;0.73;0.63;;;19.80;62.60;;;;;;5015749;28;20201;-74
2023/03/25 11:22:18;;;;;;;0.22;0.20;;;19.80;62.50;;;;;;5010733;28;20208;-75
2023/03/25 11:24:47;;;;;;;0.30;0.30;;;19.80;62.30;;;;;;5009406;28;20181;-74
2023/03/25 11:27:24;;;;;;;0.38;0.30;;;20.00;60.80;;;;;;5010793;28;20192;-75
2023/03/25 11:29:52;;;;;;;1.02;0.68;;;20.20;60.60;;;;;;5011559;28;20169;-74
2023/03/25 11:32:36;;;;;;;0.50;0.50;;;19.90;60.10;;;;;;5011159;28;20682;-74
2023/03/25 11:35:17;;;;;;;0.50;0.50;;;19.50;61.50;;;;;;5010933;28;20511;-75
2023/03/25 11:37:52;;;;;;;1.00;0.60;;;18.20;64.50;;;;;;5011047;28;20239;-75
2023/03/25 11:40:19;;;;;;;0.77;0.50;;;16.60;70.70;;;;;;5009553;28;20199;-73
2023/03/25 11:42:53;;;;;;;0.95;0.52;;;15.40;92.10;;;;;;5009429;28;20212;-75
2023/03/25 11:45:22;;;;;;;2.25;0.70;;;14.10;99.90;;;;;;5014313;28;21782;-74
2023/03/25 11:47:48;;;;;;;2.00;0.73;;;13.00;99.90;;;;;;5020798;28;20185;-74
2023/03/25 11:50:22;;;;;;;1.38;0.75;;;12.30;99.90;;;;;;5009048;28;20767;-74
2023/03/25 11:52:52;;;;;;;0.85;0.65;;;11.80;99.90;;;;;;5011743;28;20208;-73
2023/03/25 11:55:25;;;;;;;0.30;0.30;;;11.60;99.90;;;;;;5008892;28;20184;-74
2023/03/25 11:57:52;;;;;;;1.92;0.90;;;11.70;99.90;;;;;;5012912;28;20180;-75
2023/03/25 12:00:24;;;;;;;1.05;0.93;;;11.90;99.90;;;;;;5029899;28;20582;-75
2023/03/25 12:02:59;;;;;;;0.88;0.40;;;12.00;99.90;;;;;;5015698;28;20205;-75
2023/03/25 12:05:25;;;;;;;3.08;0.45;;;11.90;99.90;;;;;;5008992;28;20176;-74
2023/03/25 12:08:00;;;;;;;0.65;0.65;;;11.70;99.90;;;;;;5010653;28;20235;-74
2023/03/25 12:10:52;;;;;;;0.28;0.28;;;12.20;99.90;;;;;;5008672;28;20234;-75
2023/03/25 12:13:59;;;;;;;1.17;0.43;;;13.10;99.90;;;;;;5009535;28;20191;-75
2023/03/25 12:16:49;;;;;;;1.20;0.40;;;14.60;99.90;;;;;;5008884;28;20196;-74
2023/03/25 12:19:46;;;;;;;0.95;0.35;;;16.40;99.90;;;;;;5009405;28;20196;-74
2023/03/25 12:22:33;;;;;;;0.40;0.40;;;18.00;99.90;;;;;;5008766;28;20236;-75
2023/03/25 12:25:36;;;;;;;0.20;0.20;;;19.20;99.90;;;;;;5019125;28;20180;-75
2023/03/25 12:28:23;;;;;;;0.20;0.20;;;19.70;94.50;;;;;;5042315;28;20180;-75
2023/03/25 12:30:58;;;;;;;0.50;0.50;;;20.80;95.90;;;;;;5037748;28;20180;-75
2023/03/25 12:33:37;;;;;;;1.95;0.50;;;21.30;91.50;;;;;;5038875;28;20565;-75
2023/03/25 12:36:24;;;;;;;0.20;0.20;;;21.70;86.30;;;;;;5038173;28;20176;-75
2023/03/25 12:38:56;;;;;;;0.20;0.20;;;20.50;82.80;;;;;;5017272;28;20208;-75
2023/03/25 12:41:35;;;;;;;0.30;0.30;;;19.10;85.50;;;;;;5013404;28;20695;-75
2023/03/25 12:44:19;;;;;;;0.20;0.20;;;17.90;88.60;;;;;;5034895;28;20176;-75
2023/03/25 12:47:00;;;;;;;1.67;0.60;;;17.40;90.90;;;;;;5021297;28;20181;-76
2023/03/25 12:49:34;;;;;;;0.38;0.38;;;16.70;92.20;;;;;;5028808;28;20214;-75
2023/03/25 12:52:23;;;;;;;0.77;0.40;;;16.40;93.10;;;;;;5035256;28;20282;-76
2023/03/25 12:55:02;;;;;;;1.02;0.30;;;16.50;95.30;;;;;;5034208;28;20176;-75
2023/03/25 12:57:47;;;;;;;0.60;0.40;;;16.20;92.10;;;;;;5035786;28;20187;-77
2023/03/25 13:00:40;;;;;;;0.60;0.60;;;15.70;94.80;;;;;;5023108;28;20195;-77
2023/03/25 13:03:15;;;;;;;0.32;0.32;;;15.00;92.90;;;;;;5015920;28;20539;-78
2023/03/25 13:06:25;;;;;;;0.80;0.73;;;14.50;99.50;;;;;;5015201;28;20210;-76
2023/03/25 13:09:35;;;;;;;1.27;0.68;;;13.80;99.90;;;;;;5027328;28;20187;-76
2023/03/25 13:12:27;;;;;;;0.70;0.70;;;12.70;99.90;;;;;;5021341;28;20212;-74
2023/03/25 13:15:17;;;;;;;1.52;0.70;;;11.70;99.90;;;;;;5023700;28;20194;-75
2023/03/25 13:17:53;;;;;;;0.95;0.90;;;10.70;99.90;;;;;;5031254;28;20195;-75
2023/03/25 13:20:20;;;;;;;1.30;1.00;;;10.10;99.90;;;;;;5034033;28;20185;-75